Simmons, Missouri
Current Conditions -  °F | °C
As of 3:32 AM on Friday 19 Dec 2014 (Local Time) from KUNO Reporting Station
Haze Haze  
Wind Chill: -1°   Ceiling: 300
Heat Index:   Visibility: 1.5mi
Dew Point:   Wind: 6mph
Humidity: 96%   Direction: 40°NE
Pressure: 30.2"   Gusts: NA
Location:  37.3091°N, 91.9516°W
Report Text: KUNO 190932Z AUTO 04005KT 1 1/2SM BR OVC003 02/01 A3020 RMK AO2 T00170011
Loading
Personal Weather Stations






























Interactive Weather Map New forecast layout! Learn more

10-Day Weather Forecast

Advertisements
Track Severe Weather on mobile